LFKF Airport Information

Runway Information
Runway 05 Length 8136 ft width 148 ft
Elevation 40 ft Threshold 0 ft Heading 48
Runway 23 Length 8136 ft Width 148 ft
Elevation 86 ft Threshold 0 ft Heading 228
Airport Frequencies
Type ATIS Name FIGARI INF Frequency 118.725 MHZ
Type GND Name FIGARI GND Frequency 121.8 MHZ
Type TWR Name FIGARI TWR Frequency 120.3 MHZ
Airport Navaids
Type VOR-DME Name Figari Frequency 116700 KHZ
Airport Weather Information & NOTAM
ADDS - METARS form results

(2128 UTC 12 December 2018)
Data provider http://aviationweather.gov/metar/data/
 
METAR text: LFKF 122100Z AUTO VRB02KT 9999 BKN050 06/05 Q1014 NOSIG
Conditions at: LFKF (FIGARI (AUT) , FR) observed 2100 UTC 12 December 2018
Temperature: 6.0°C (43°F)
Dewpoint: 5.0°C (41°F) [RH = 93%]
Pressure (altimeter): 29.94 inches Hg (1014.0 mb)
Winds: variable direction winds at 2 MPH (2 knots; 1.0 m/s)
Visibility: 6 or more miles (10+ km)
Ceiling: 5000 feet AGL
Clouds: broken clouds at 5000 feet AGL
Weather: no significant weather observed at this time

METAR text: LFKF 122030Z AUTO 12002KT 9999 FEW049 BKN064 BKN240 05/04 Q1015 NOSIG
Conditions at: LFKF (FIGARI (AUT) , FR) observed 2030 UTC 12 December 2018
Temperature: 5.0°C (41°F)
Dewpoint: 4.0°C (39°F) [RH = 93%]
Pressure (altimeter): 29.97 inches Hg (1015.0 mb)
Winds: from the ESE (120 degrees) at 2 MPH (2 knots; 1.0 m/s)
Visibility: 6 or more miles (10+ km)
Ceiling: 6400 feet AGL
Clouds: few clouds at 4900 feet AGL
broken clouds at 6400 feet AGL
broken clouds at 24000 feet AGL
Weather: no significant weather observed at this time

Forecast for: LFKF (FIGARI (AUT) , FR)
Text: TAF LFKF 121400Z 1215/1315 05005KT 9999 FEW040 BKN050
Forecast period: 1500 UTC 12 December 2018 to 0300 UTC 13 December 2018
Forecast type: FROM: standard forecast or significant change
Winds: from the NE (50 degrees) at 6 MPH (5 knots; 2.6 m/s)
Visibility: 6 or more miles 10+ km)
Ceiling: 5000 feet AGL
Clouds: few clouds at 4000 feet AGL
broken clouds at 5000 feet AGL
Weather: no significant weather forecast for this period
Text: BECMG 1303/1306 24006KT
Forecast period: 0300 to 1500 UTC 13 December 2018
Forecast type: BECOMING: Conditions expected to become as follows by 0600 UTC 13 December 2018
Winds: from the WSW (240 degrees) at 7 MPH (6 knots; 3.1 m/s)
Visibility: 6 or more miles 10+ km)
Ceiling: 5000 feet AGL
Clouds: few clouds at 4000 feet AGL
broken clouds at 5000 feet AGL
Weather: no significant weather forecast for this period